createdAt,value
2019-06-07T00:01:09.565Z,9.20
2019-06-07T00:03:36.105Z,9.20
2019-06-07T00:06:02.633Z,9.20
2019-06-07T00:08:29.640Z,9.20
2019-06-07T00:10:56.235Z,9.20
2019-06-07T00:13:22.772Z,9.20
2019-06-07T00:15:49.320Z,9.30
2019-06-07T00:18:22.384Z,9.20
2019-06-07T00:20:44.261Z,9.20
2019-06-07T00:23:12.278Z,9.20
2019-06-07T00:25:39.245Z,9.20
2019-06-07T00:28:05.821Z,9.20
2019-06-07T00:30:50.178Z,9.20
2019-06-07T00:33:00.828Z,9.30
2019-06-07T00:35:27.341Z,9.10
2019-06-07T00:37:53.876Z,9.10
2019-06-07T00:40:30.890Z,9.10
2019-06-07T00:42:48.942Z,9.10
2019-06-07T00:45:19.982Z,9.10
2019-06-07T00:47:44.668Z,9.20
2019-06-07T00:50:13.737Z,9.20
2019-06-07T00:53:13.859Z,9.20
2019-06-07T00:55:09.738Z,9.20
2019-06-07T00:57:36.893Z,9.20
2019-06-07T01:00:07.037Z,9.20
2019-06-07T01:02:33.577Z,9.90
2019-06-07T01:05:00.138Z,9.30
2019-06-07T01:07:26.759Z,9.30
2019-06-07T01:09:53.299Z,9.20
2019-06-07T01:12:22.113Z,9.30
2019-06-07T01:14:48.297Z,9.30
2019-06-07T01:17:33.120Z,9.30
2019-06-07T01:19:50.989Z,9.30
2019-06-07T01:22:18.409Z,9.30
2019-06-07T01:24:45.959Z,9.30
2019-06-07T01:27:12.489Z,9.30
2019-06-07T01:29:39.028Z,9.30
2019-06-07T01:32:06.584Z,9.30
2019-06-07T01:34:33.120Z,9.30
2019-06-07T01:36:59.641Z,9.40
2019-06-07T01:39:29.842Z,9.50
2019-06-07T01:41:54.727Z,9.40
2019-06-07T01:44:25.242Z,9.50
2019-06-07T01:46:49.720Z,9.50
2019-06-07T01:49:17.121Z,9.50
2019-06-07T01:51:43.788Z,9.50
2019-06-07T01:54:49.128Z,9.50
2019-06-07T01:56:38.781Z,9.50
2019-06-07T01:59:05.314Z,9.50
2019-06-07T02:01:35.215Z,9.50
2019-06-07T02:04:00.323Z,9.50
2019-06-07T02:06:31.377Z,9.50
2019-06-07T02:08:55.311Z,9.50
2019-06-07T02:11:23.489Z,9.50
2019-06-07T02:13:50.285Z,9.60
2019-06-07T02:16:16.824Z,9.60
2019-06-07T02:19:00.730Z,9.60
2019-06-07T02:21:11.801Z,9.60
2019-06-07T02:23:38.349Z,9.60
2019-06-07T02:26:04.888Z,9.60
2019-06-07T02:28:44.191Z,9.60
2019-06-07T02:31:00.808Z,9.60
2019-06-07T02:33:31.120Z,9.70
2019-06-07T02:35:55.942Z,9.60
2019-06-07T02:38:27.063Z,9.60
2019-06-07T02:40:50.948Z,9.60
2019-06-07T02:43:17.448Z,9.60
2019-06-07T02:45:46.061Z,9.50
2019-06-07T02:48:12.602Z,9.50
2019-06-07T02:50:39.153Z,9.50
2019-06-07T02:53:05.670Z,9.50
2019-06-07T02:55:44.744Z,9.40
2019-06-07T02:58:00.644Z,9.40
2019-06-07T03:01:07.012Z,9.40
2019-06-07T03:03:16.790Z,9.40
2019-06-07T03:05:44.852Z,9.40
2019-06-07T03:08:16.531Z,9.40
2019-06-07T03:10:46.185Z,9.50
2019-06-07T03:13:17.213Z,9.50
2019-06-07T03:15:49.945Z,9.50
2019-06-07T03:18:28.468Z,9.50
2019-06-07T03:21:05.437Z,9.50
2019-06-07T03:23:31.605Z,9.60
2019-06-07T03:25:57.713Z,9.60
2019-06-07T03:28:24.344Z,9.60
2019-06-07T03:31:01.387Z,9.60
2019-06-07T03:33:19.321Z,9.60
2019-06-07T03:35:45.857Z,9.60
2019-06-07T03:38:12.398Z,9.60
2019-06-07T03:40:40.191Z,9.60
2019-06-07T03:43:06.898Z,9.60
2019-06-07T03:45:36.036Z,9.60
2019-06-07T03:48:02.067Z,9.60
2019-06-07T03:50:31.955Z,9.60
2019-06-07T03:52:57.059Z,9.60
2019-06-07T03:55:23.622Z,9.60
2019-06-07T04:00:20.824Z,9.50
2019-06-07T04:02:47.333Z,9.50
2019-06-07T04:05:13.849Z,9.50
2019-06-07T04:07:44.435Z,9.50
2019-06-07T04:10:10.037Z,9.50
2019-06-07T04:12:41.172Z,9.60
2019-06-07T04:15:06.698Z,9.60
2019-06-07T04:17:34.680Z,9.70
2019-06-07T04:20:04.728Z,9.70
2019-06-07T04:22:32.109Z,9.80
2019-06-07T04:25:02.608Z,10.50
2019-06-07T04:27:30.538Z,9.80
2019-06-07T04:30:07.088Z,9.90
2019-06-07T04:32:25.648Z,9.90
2019-06-07T04:34:52.171Z,9.90
2019-06-07T04:37:19.207Z,9.90
2019-06-07T04:39:47.333Z,10.00
2019-06-07T04:42:16.582Z,10.00
2019-06-07T04:44:44.717Z,10.00
2019-06-07T04:47:13.150Z,10.00
2019-06-07T04:49:43.981Z,10.10
2019-06-07T04:52:11.258Z,10.10
2019-06-07T04:54:41.084Z,10.10
2019-06-07T04:57:06.229Z,10.20
2019-06-07T05:00:05.333Z,10.30
2019-06-07T05:02:01.219Z,10.30
2019-06-07T05:04:28.942Z,10.40
2019-06-07T05:06:56.193Z,10.50
2019-06-07T05:09:22.714Z,10.60
2019-06-07T05:11:49.250Z,10.60
2019-06-07T05:14:16.846Z,10.70
2019-06-07T05:16:44.554Z,10.70
2019-06-07T05:19:11.259Z,10.80
2019-06-07T05:21:54.272Z,10.90
2019-06-07T05:24:10.438Z,10.90
2019-06-07T05:26:37.727Z,11.00
2019-06-07T05:29:03.323Z,11.10
2019-06-07T05:31:31.075Z,11.10
2019-06-07T05:33:58.356Z,11.70
2019-06-07T05:36:24.885Z,11.30
2019-06-07T05:38:51.422Z,11.40
2019-06-07T05:41:18.055Z,11.00
2019-06-07T05:43:55.091Z,11.50
2019-06-07T05:46:13.036Z,11.60
2019-06-07T05:48:41.944Z,11.70
2019-06-07T05:51:08.581Z,11.70
2019-06-07T05:53:35.106Z,11.80
2019-06-07T05:56:01.634Z,11.90
2019-06-07T05:58:28.159Z,11.90
2019-06-07T06:00:54.689Z,12.00
2019-06-07T06:03:21.221Z,12.10
2019-06-07T06:05:54.488Z,12.20
2019-06-07T06:08:16.295Z,12.30
2019-06-07T06:10:46.856Z,12.40
2019-06-07T06:13:11.334Z,12.50
2019-06-07T06:15:50.146Z,12.60
2019-06-07T06:18:06.500Z,12.70
2019-06-07T06:20:47.710Z,12.70
2019-06-07T06:23:01.758Z,12.90
2019-06-07T06:25:32.360Z,13.00
2019-06-07T06:28:09.841Z,13.10
2019-06-07T06:30:25.370Z,13.10
2019-06-07T06:32:57.742Z,13.30
2019-06-07T06:35:20.334Z,13.30
2019-06-07T06:37:52.727Z,13.40
2019-06-07T06:40:16.014Z,13.60
2019-06-07T06:42:44.699Z,13.70
2019-06-07T06:45:12.077Z,13.80
2019-06-07T06:47:38.635Z,13.90
2019-06-07T06:50:09.075Z,14.10
2019-06-07T06:52:35.754Z,14.20
2019-06-07T06:55:05.688Z,14.30
2019-06-07T06:57:32.206Z,14.40
2019-06-07T06:59:58.730Z,14.50
2019-06-07T07:02:25.248Z,14.60
2019-06-07T07:04:53.827Z,14.70
2019-06-07T07:07:20.787Z,14.80
2019-06-07T07:09:52.317Z,15.00
2019-06-07T07:12:16.140Z,15.10
2019-06-07T07:14:45.571Z,15.20
2019-06-07T07:17:11.143Z,15.30
2019-06-07T07:19:37.745Z,15.40
2019-06-07T07:22:05.156Z,15.40
2019-06-07T07:24:31.692Z,15.50
2019-06-07T07:26:58.621Z,15.70
2019-06-07T07:29:25.363Z,15.70
2019-06-07T07:31:55.777Z,15.70
2019-06-07T07:34:33.352Z,15.90
2019-06-07T07:36:53.442Z,16.00
2019-06-07T07:39:17.368Z,16.10
2019-06-07T07:42:05.024Z,16.30
2019-06-07T07:44:12.486Z,16.50
2019-06-07T07:46:39.015Z,16.50
2019-06-07T07:49:05.546Z,16.70
2019-06-07T07:51:32.212Z,16.80
2019-06-07T07:54:10.293Z,17.00
2019-06-07T07:56:27.172Z,17.10
2019-06-07T07:59:00.065Z,17.20
2019-06-07T08:01:22.575Z,17.30
2019-06-07T08:03:50.670Z,17.40
2019-06-07T08:06:17.558Z,17.40
2019-06-07T08:08:44.091Z,17.50
2019-06-07T08:11:10.630Z,17.50
2019-06-07T08:13:37.386Z,17.50
2019-06-07T08:16:10.255Z,17.60
2019-06-07T08:18:32.677Z,17.60
2019-06-07T08:21:20.502Z,17.80
2019-06-07T08:23:27.635Z,17.80
2019-06-07T08:26:00.041Z,17.90
2019-06-07T08:28:22.597Z,18.00
2019-06-07T08:30:55.034Z,18.10
2019-06-07T08:33:25.853Z,18.20
2019-06-07T08:38:26.036Z,18.40
2019-06-07T08:40:42.914Z,18.50
2019-06-07T08:43:19.469Z,18.70
2019-06-07T08:45:37.879Z,18.80
2019-06-07T08:48:23.830Z,18.90
2019-06-07T08:50:32.873Z,19.00
2019-06-07T08:53:10.884Z,19.10
2019-06-07T08:55:27.928Z,19.20
2019-06-07T08:58:01.551Z,19.30
2019-06-07T09:00:45.676Z,19.40
2019-06-07T09:02:53.175Z,19.50
2019-06-07T09:05:20.485Z,19.50
2019-06-07T09:07:47.131Z,19.60
2019-06-07T09:10:16.163Z,19.60
2019-06-07T09:12:42.836Z,19.70
2019-06-07T09:15:21.262Z,19.70
2019-06-07T09:18:29.644Z,19.80
2019-06-07T09:20:35.214Z,19.90
2019-06-07T09:22:41.191Z,20.10
2019-06-07T09:25:20.116Z,20.20
2019-06-07T09:27:38.050Z,20.40
2019-06-07T09:30:16.446Z,20.60
2019-06-07T09:32:37.535Z,20.70
2019-06-07T09:35:12.394Z,20.70
2019-06-07T09:38:04.289Z,20.80
2019-06-07T09:40:19.603Z,20.90
2019-06-07T09:42:33.324Z,21.00
2019-06-07T09:45:01.202Z,21.00
2019-06-07T09:47:32.602Z,21.10
2019-06-07T09:50:02.361Z,21.30
2019-06-07T09:52:25.236Z,21.50
2019-06-07T09:55:22.005Z,21.50
2019-06-07T09:57:20.263Z,21.50
2019-06-07T09:59:46.961Z,21.50
2019-06-07T10:02:13.958Z,21.60
2019-06-07T10:04:40.628Z,21.70
2019-06-07T10:07:16.889Z,21.80
2019-06-07T10:10:09.864Z,21.90
2019-06-07T10:12:04.684Z,22.00
2019-06-07T10:14:31.536Z,22.10
2019-06-07T10:16:58.809Z,22.10
2019-06-07T10:19:25.477Z,22.30
2019-06-07T10:21:51.997Z,22.30
2019-06-07T10:24:18.512Z,22.40
2019-06-07T10:26:45.097Z,22.50
2019-06-07T10:29:11.636Z,22.60
2019-06-07T10:31:38.208Z,22.70
2019-06-07T10:34:04.729Z,22.80
2019-06-07T10:36:31.274Z,23.00
2019-06-07T10:38:57.796Z,23.10
2019-06-07T10:41:24.402Z,23.10
2019-06-07T10:43:50.927Z,23.20
2019-06-07T10:46:17.548Z,23.20
2019-06-07T10:48:44.084Z,23.30
2019-06-07T10:51:12.419Z,23.30
2019-06-07T10:53:39.126Z,23.30
2019-06-07T10:56:06.937Z,23.40
2019-06-07T10:58:33.682Z,23.50
2019-06-07T11:01:00.242Z,23.60
2019-06-07T11:03:26.771Z,23.70
2019-06-07T11:05:53.297Z,23.70
2019-06-07T11:08:19.826Z,23.80
2019-06-07T11:10:46.352Z,23.80
2019-06-07T11:13:12.885Z,23.90
2019-06-07T11:15:39.439Z,23.90
2019-06-07T11:18:06.255Z,23.90
2019-06-07T11:20:32.902Z,23.90
2019-06-07T11:22:59.455Z,24.00
2019-06-07T11:25:25.981Z,24.00
2019-06-07T11:27:52.570Z,24.20
2019-06-07T11:30:19.325Z,24.40
2019-06-07T11:32:45.878Z,24.60
2019-06-07T11:35:13.968Z,24.60
2019-06-07T11:37:41.651Z,24.60
2019-06-07T11:40:27.733Z,24.60
2019-06-07T11:42:38.925Z,24.70
2019-06-07T11:45:06.262Z,24.80
2019-06-07T11:47:32.798Z,24.90
2019-06-07T11:49:59.317Z,24.90
2019-06-07T11:52:25.910Z,25.00
2019-06-07T11:54:52.430Z,25.00
2019-06-07T11:57:18.967Z,25.10
2019-06-07T11:59:45.507Z,25.20
2019-06-07T12:02:13.302Z,25.30
2019-06-07T12:04:40.141Z,25.30
2019-06-07T12:07:10.200Z,25.40
2019-06-07T12:09:35.125Z,25.50
2019-06-07T12:12:01.642Z,25.50
2019-06-07T12:14:28.222Z,25.60
2019-06-07T12:16:54.876Z,25.60
2019-06-07T12:19:22.495Z,25.60
2019-06-07T12:21:49.019Z,25.60
2019-06-07T12:24:16.237Z,25.70
2019-06-07T12:26:42.883Z,25.80
2019-06-07T12:29:10.660Z,25.90
2019-06-07T12:31:37.344Z,26.00
2019-06-07T12:34:03.868Z,26.10
2019-06-07T12:36:30.459Z,26.20
2019-06-07T12:38:57.008Z,26.20
2019-06-07T12:41:23.540Z,26.20
2019-06-07T12:43:50.117Z,26.20
2019-06-07T12:46:21.147Z,26.30
2019-06-07T12:48:45.075Z,26.20
2019-06-07T12:51:13.054Z,26.10
2019-06-07T12:53:39.774Z,26.20
2019-06-07T12:56:06.297Z,26.30
2019-06-07T12:58:37.255Z,26.30
2019-06-07T13:01:01.970Z,26.30
2019-06-07T13:03:28.506Z,26.30
2019-06-07T13:05:55.068Z,26.30
2019-06-07T13:08:22.108Z,26.30
2019-06-07T13:10:48.943Z,26.40
2019-06-07T13:13:15.825Z,26.50
2019-06-07T13:15:42.471Z,26.50
2019-06-07T13:18:09.052Z,26.50
2019-06-07T13:20:36.026Z,26.40
2019-06-07T13:23:02.955Z,26.30
2019-06-07T13:25:44.087Z,26.20
2019-06-07T13:27:57.916Z,26.30
2019-06-07T13:30:25.551Z,26.30
2019-06-07T13:32:53.267Z,26.30
2019-06-07T13:35:21.931Z,26.20
2019-06-07T13:37:48.397Z,26.20
2019-06-07T13:40:16.410Z,26.20
2019-06-07T13:42:43.161Z,26.20
2019-06-07T13:45:12.088Z,26.20
2019-06-07T13:47:39.161Z,26.20
2019-06-07T13:50:07.393Z,26.20
2019-06-07T13:52:34.006Z,26.20
2019-06-07T13:55:02.365Z,26.00
2019-06-07T13:57:29.229Z,26.00
2019-06-07T13:59:56.428Z,25.90
2019-06-07T14:02:24.029Z,25.80
2019-06-07T14:04:51.512Z,25.70
2019-06-07T14:07:19.310Z,25.60
2019-06-07T14:09:46.057Z,25.50
2019-06-07T14:12:12.590Z,25.60
2019-06-07T14:14:39.121Z,25.60
2019-06-07T14:17:05.650Z,25.70
2019-06-07T14:19:32.259Z,25.90
2019-06-07T14:21:58.816Z,26.00
2019-06-07T14:24:25.352Z,26.10
2019-06-07T14:27:06.842Z,26.10
2019-06-07T14:29:38.084Z,25.90
2019-06-07T14:32:09.873Z,25.70
2019-06-07T14:34:36.608Z,25.50
2019-06-07T14:37:04.743Z,25.20
2019-06-07T14:39:31.528Z,25.00
2019-06-07T14:42:08.556Z,24.70
2019-06-07T14:44:27.695Z,24.50
2019-06-07T14:46:54.363Z,24.20
2019-06-07T14:49:20.929Z,24.00
2019-06-07T14:51:47.643Z,23.90
2019-06-07T14:54:14.190Z,23.80
2019-06-07T14:56:40.720Z,23.80
2019-06-07T14:59:07.248Z,23.70
2019-06-07T15:01:35.475Z,23.60
2019-06-07T15:04:02.863Z,23.60
2019-06-07T15:06:30.593Z,23.60
2019-06-07T15:08:57.372Z,23.50
2019-06-07T15:11:23.916Z,23.30
2019-06-07T15:13:50.957Z,23.20
2019-06-07T15:16:17.527Z,23.00
2019-06-07T15:18:44.202Z,22.90
2019-06-07T15:21:10.784Z,22.80
2019-06-07T15:23:37.300Z,22.80
2019-06-07T15:26:03.897Z,22.70
2019-06-07T15:28:32.078Z,22.50
2019-06-07T15:30:58.914Z,22.40
2019-06-07T15:33:25.461Z,22.20
2019-06-07T15:35:52.000Z,21.90
2019-06-07T15:38:18.517Z,21.70
2019-06-07T15:40:45.057Z,21.60
2019-06-07T15:43:11.631Z,21.60
2019-06-07T15:45:38.171Z,21.70
2019-06-07T15:48:04.723Z,21.80
2019-06-07T15:50:32.182Z,21.70
2019-06-07T15:52:58.985Z,21.60
2019-06-07T15:55:25.515Z,21.60
2019-06-07T15:57:53.091Z,21.50
2019-06-07T16:00:20.202Z,21.60
2019-06-07T16:02:46.848Z,21.80
2019-06-07T16:05:14.235Z,22.00
2019-06-07T16:07:42.539Z,22.10
2019-06-07T16:10:09.921Z,22.10
2019-06-07T16:12:36.793Z,22.10
2019-06-07T16:15:06.195Z,22.00
2019-06-07T16:17:33.037Z,22.00
2019-06-07T16:19:59.569Z,21.90
2019-06-07T16:22:26.101Z,21.90
2019-06-07T16:24:52.634Z,21.90
2019-06-07T16:27:19.250Z,21.90
2019-06-07T16:29:45.799Z,21.80
2019-06-07T16:32:12.462Z,21.60
2019-06-07T16:34:39.908Z,21.50
2019-06-07T16:37:07.420Z,21.40
2019-06-07T16:39:34.007Z,21.40
2019-06-07T16:42:00.593Z,21.40
2019-06-07T16:44:27.124Z,21.30
2019-06-07T16:46:53.659Z,21.30
2019-06-07T16:49:20.185Z,21.10
2019-06-07T16:51:46.774Z,20.80
2019-06-07T16:54:13.293Z,20.30
2019-06-07T16:56:45.372Z,19.80
2019-06-07T16:59:08.332Z,19.20
2019-06-07T17:01:34.884Z,18.80
2019-06-07T17:04:01.438Z,18.50
2019-06-07T17:06:27.954Z,18.20
2019-06-07T17:08:54.617Z,17.90
2019-06-07T17:11:21.128Z,17.60
2019-06-07T17:13:48.559Z,17.30
2019-06-07T17:16:15.194Z,17.10
2019-06-07T17:18:42.938Z,16.80
2019-06-07T17:21:09.707Z,16.60
2019-06-07T17:23:36.462Z,16.40
2019-06-07T17:26:03.141Z,16.30
2019-06-07T17:28:29.776Z,16.20
2019-06-07T17:30:56.451Z,16.00
2019-06-07T17:33:23.042Z,15.90
2019-06-07T17:35:50.642Z,15.70
2019-06-07T17:38:17.469Z,15.60
2019-06-07T17:40:44.983Z,15.50
2019-06-07T17:43:11.709Z,15.30
2019-06-07T17:45:38.237Z,15.30
2019-06-07T17:48:05.986Z,15.20
2019-06-07T17:50:33.468Z,15.10
2019-06-07T17:53:00.638Z,15.00
2019-06-07T17:55:28.282Z,14.90
2019-06-07T17:57:56.768Z,14.80
2019-06-07T18:00:29.506Z,14.80
2019-06-07T18:02:58.190Z,14.70
2019-06-07T18:05:24.828Z,14.70
2019-06-07T18:07:51.813Z,14.60
2019-06-07T18:10:38.118Z,14.60
2019-06-07T18:13:06.407Z,14.50
2019-06-07T18:15:39.664Z,14.50
2019-06-07T18:18:06.255Z,14.50
2019-06-07T18:20:33.686Z,14.40
2019-06-07T18:23:00.485Z,14.40
2019-06-07T18:25:28.763Z,14.40
2019-06-07T18:27:58.907Z,14.30
2019-06-07T18:30:26.304Z,14.30
2019-06-07T18:32:53.036Z,14.30
2019-06-07T18:35:19.799Z,14.20
2019-06-07T18:37:51.152Z,14.20
2019-06-07T18:40:19.741Z,14.20
2019-06-07T18:42:47.109Z,14.10
2019-06-07T18:45:14.128Z,14.00
2019-06-07T18:47:43.847Z,14.00
2019-06-07T18:50:14.701Z,13.90
2019-06-07T18:52:43.711Z,13.90
2019-06-07T18:55:10.613Z,13.80
2019-06-07T18:57:38.752Z,13.70
2019-06-07T19:00:13.387Z,13.60
2019-06-07T19:02:40.766Z,13.30
2019-06-07T19:05:10.768Z,13.20
2019-06-07T19:07:42.176Z,13.10
2019-06-07T19:13:01.071Z,13.00
2019-06-07T19:15:28.597Z,13.00
2019-06-07T19:17:58.021Z,13.00
2019-06-07T19:20:26.078Z,12.90
2019-06-07T19:22:54.169Z,12.90
2019-06-07T19:25:22.497Z,12.80
2019-06-07T19:27:49.018Z,12.70
2019-06-07T19:30:18.540Z,12.70
2019-06-07T19:32:45.054Z,12.70
2019-06-07T19:35:12.920Z,12.70
2019-06-07T19:37:39.460Z,12.70
2019-06-07T19:40:06.874Z,12.70
2019-06-07T19:42:33.557Z,12.80
2019-06-07T19:45:24.624Z,12.80
2019-06-07T19:47:28.538Z,12.90
2019-06-07T19:49:55.079Z,12.90
2019-06-07T19:52:21.599Z,13.00
2019-06-07T19:54:48.185Z,13.10
2019-06-07T19:57:14.718Z,13.00
2019-06-07T19:59:41.256Z,12.70
2019-06-07T20:02:07.773Z,12.40
2019-06-07T20:04:34.308Z,12.20
2019-06-07T20:07:00.828Z,12.00
2019-06-07T20:09:30.481Z,11.90
2019-06-07T20:11:56.462Z,11.80
2019-06-07T20:14:23.102Z,11.80
2019-06-07T20:16:49.626Z,11.80
2019-06-07T20:19:16.165Z,11.80
2019-06-07T20:21:42.692Z,11.80
2019-06-07T20:24:24.737Z,11.80
2019-06-07T20:26:37.934Z,11.90
2019-06-07T20:29:05.713Z,12.00
2019-06-07T20:31:32.328Z,12.00
2019-06-07T20:34:04.348Z,12.10
2019-06-07T20:36:32.133Z,12.10
2019-06-07T20:39:00.073Z,12.10
2019-06-07T20:41:26.910Z,12.10
2019-06-07T20:43:53.460Z,12.10
2019-06-07T20:46:20.002Z,12.20
2019-06-07T20:48:46.602Z,12.20
2019-06-07T20:51:13.129Z,12.20
2019-06-07T20:53:39.793Z,12.30
2019-06-07T20:56:06.799Z,12.40
2019-06-07T20:58:33.469Z,12.40
2019-06-07T21:01:00.612Z,12.30
2019-06-07T21:03:27.207Z,12.20
2019-06-07T21:05:53.728Z,12.20
2019-06-07T21:08:20.258Z,12.20
2019-06-07T21:10:46.791Z,12.20
2019-06-07T21:13:13.310Z,12.10
2019-06-07T21:15:48.237Z,12.10
2019-06-07T21:18:16.894Z,12.20
2019-06-07T21:20:36.803Z,12.20
2019-06-07T21:23:04.695Z,12.30
2019-06-07T21:25:31.437Z,12.40
2019-06-07T21:27:57.956Z,12.40
2019-06-07T21:30:24.494Z,12.50
2019-06-07T21:32:52.110Z,12.60
2019-06-07T21:35:18.844Z,12.70
2019-06-07T21:37:45.387Z,12.70
2019-06-07T21:40:12.305Z,12.80
2019-06-07T21:42:38.885Z,12.80
2019-06-07T21:45:07.924Z,12.80
2019-06-07T21:47:34.771Z,12.80
2019-06-07T21:50:02.590Z,12.80
2019-06-07T21:52:29.356Z,12.70
2019-06-07T21:54:55.918Z,12.60
2019-06-07T21:57:22.516Z,12.50
2019-06-07T21:59:49.042Z,12.50
2019-06-07T22:02:17.673Z,12.40
2019-06-07T22:04:44.229Z,12.40
2019-06-07T22:07:11.548Z,12.30
2019-06-07T22:09:38.125Z,12.30
2019-06-07T22:12:05.949Z,12.30
2019-06-07T22:14:32.602Z,12.30
2019-06-07T22:17:01.182Z,12.30
2019-06-07T22:19:27.714Z,12.20
2019-06-07T22:22:02.614Z,12.20
2019-06-07T22:24:22.682Z,12.10
2019-06-07T22:26:49.195Z,12.10
2019-06-07T22:29:15.726Z,12.10
2019-06-07T22:31:42.261Z,12.10
2019-06-07T22:34:08.860Z,12.00
2019-06-07T22:36:35.438Z,12.00
2019-06-07T22:39:02.168Z,12.00
2019-06-07T22:41:28.700Z,12.00
2019-06-07T22:43:55.231Z,12.00
2019-06-07T22:46:36.510Z,12.00
2019-06-07T22:48:50.189Z,12.00
2019-06-07T22:51:18.303Z,12.00
2019-06-07T22:53:44.949Z,12.00
2019-06-07T22:56:16.287Z,11.90
2019-06-07T22:58:42.811Z,12.00
2019-06-07T23:01:10.366Z,11.90
2019-06-07T23:03:36.973Z,11.90
2019-06-07T23:06:03.595Z,11.90
2019-06-07T23:08:30.132Z,11.90
2019-06-07T23:10:56.735Z,11.90
2019-06-07T23:13:23.262Z,12.00
2019-06-07T23:15:49.795Z,12.00
2019-06-07T23:18:17.584Z,12.00
2019-06-07T23:20:44.246Z,12.00
2019-06-07T23:23:10.773Z,12.00
2019-06-07T23:25:37.305Z,12.00
2019-06-07T23:28:03.828Z,11.90
2019-06-07T23:30:30.395Z,11.90
2019-06-07T23:32:56.920Z,11.90
2019-06-07T23:35:23.449Z,11.90
2019-06-07T23:37:49.985Z,11.90
2019-06-07T23:40:17.359Z,12.00
2019-06-07T23:42:44.133Z,11.90
2019-06-07T23:45:12.012Z,11.90
2019-06-07T23:47:40.509Z,12.00
2019-06-07T23:50:08.031Z,11.90
2019-06-07T23:52:34.570Z,11.90
2019-06-07T23:55:01.206Z,11.90
2019-06-07T23:57:27.755Z,11.90
2019-06-07T23:59:54.284Z,11.90
